Time;durP1;ratioP1;P1;durP2;ratioP2;P2;SDS_P1;SDS_P2;PMS_P1;PMS_P2;Temp;Humidity;BMP_temperature;BMP_pressure;BME280_temperature;BME280_humidity;BME280_pressure;Samples;Min_cycle;Max_cycle;Signal;HPM_P1;HPM_P2
2022/02/15 00:01:43;;;;;;;;;;;;;;;17.55;52.01;100649.16;5098573;28;20011;-77
2022/02/15 00:04:09;;;;;;;;;;;;;;;17.54;52.11;100642.25;5114801;28;19947;-77
2022/02/15 00:06:34;;;;;;;;;;;;;;;17.54;51.84;100644.84;5097935;28;20357;-77
2022/02/15 00:08:59;;;;;;;;;;;;;;;17.54;52.04;100653.50;5098012;28;19968;-77
2022/02/15 00:11:27;;;;;;;;;;;;;;;17.54;51.95;100652.66;5097925;28;19920;-76
2022/02/15 00:13:53;;;;;;;;;;;;;;;17.53;52.10;100650.91;5114375;28;19916;-77
2022/02/15 00:16:18;;;;;;;;;;;;;;;17.53;52.03;100651.81;5115170;28;19923;-77
2022/02/15 00:18:49;;;;;;;;;;;;;;;17.54;51.96;100655.25;5117046;28;19939;-82
2022/02/15 00:30:08;;;;;;;;;;;;;;;17.50;51.83;100657.03;5143237;28;19915;-83
2022/02/15 00:33:11;;;;;;;;;;;;;;;17.51;51.93;100660.47;5107945;28;19950;-87
2022/02/15 00:42:22;;;;;;;;;;;;;;;17.47;51.90;100673.53;5138038;28;19924;-84
2022/02/15 00:50:29;;;;;;;;;;;;;;;17.47;51.79;100673.53;5764944;22;19924;-86
2022/02/15 00:56:19;;;;;;;;;;;;;;;17.47;51.78;100677.88;5001798;28;19929;-87
2022/02/15 01:01:55;;;;;;;;;;;;;;;17.47;52.04;100683.94;5001569;28;19925;-86
2022/02/15 01:04:41;;;;;;;;;;;;;;;17.46;51.80;100690.03;5001480;28;19906;-86
2022/02/15 01:10:46;;;;;;;;;;;;;;;17.45;51.92;100685.69;5001299;28;19974;-88
2022/02/15 01:17:05;;;;;;;;;;;;;;;17.46;51.99;100691.75;4962316;28;19929;-86
2022/02/15 01:19:32;;;;;;;;;;;;;;;17.46;51.80;100702.16;4957763;28;19914;-86
2022/02/15 01:27:52;;;;;;;;;;;;;;;17.46;51.95;100691.75;5001101;28;19938;-87
2022/02/15 01:33:39;;;;;;;;;;;;;;;17.44;52.05;100699.59;5000858;28;19913;-88
2022/02/15 01:39:14;;;;;;;;;;;;;;;17.44;51.93;100707.41;4981300;28;19914;-85
2022/02/15 01:44:51;;;;;;;;;;;;;;;17.44;52.01;100711.72;4988737;28;19930;-88
2022/02/15 01:47:46;;;;;;;;;;;;;;;17.44;51.95;100717.81;4961078;28;19913;-87
2022/02/15 01:51:10;;;;;;;;;;;;;;;17.44;52.14;100714.31;4938363;29;19923;-87
2022/02/15 01:54:14;;;;;;;;;;;;;;;17.45;51.88;100718.66;4922547;29;19924;-86
2022/02/15 01:57:06;;;;;;;;;;;;;;;17.44;52.06;100712.59;4915279;29;19927;-86
2022/02/15 01:59:47;;;;;;;;;;;;;;;17.43;51.93;100710.00;4892389;29;20017;-84
2022/02/15 02:05:48;;;;;;;;;;;;;;;17.42;52.12;100711.75;4916296;29;19914;-88
2022/02/15 02:08:33;;;;;;;;;;;;;;;17.43;52.07;100712.63;4926380;29;19951;-87
2022/02/15 02:20:53;;;;;;;;;;;;;;;17.41;51.84;100712.63;4942423;29;19944;-86
2022/02/15 02:26:32;;;;;;;;;;;;;;;17.40;51.86;100715.25;4961234;29;19914;-87
2022/02/15 02:32:29;;;;;;;;;;;;;;;17.40;52.14;100721.31;4960853;29;19921;-88
2022/02/15 02:38:29;;;;;;;;;;;;;;;17.38;51.89;100733.47;5001265;28;20078;-87
2022/02/15 02:44:26;;;;;;;;;;;;;;;17.38;51.95;100738.69;5038443;28;19981;-85
2022/02/15 02:50:19;;;;;;;;;;;;;;;17.38;51.89;100738.69;5038735;28;19928;-87
2022/02/15 02:56:32;;;;;;;;;;;;;;;17.38;51.96;100736.09;4999358;28;19969;-87
2022/02/15 03:08:13;;;;;;;;;;;;;;;17.38;52.05;100746.50;5018674;28;19944;-88
2022/02/15 03:16:51;;;;;;;;;;;;;;;17.37;51.85;100757.75;5093177;22;19945;-86
2022/02/15 03:19:19;;;;;;;;;;;;;;;17.38;51.77;100774.25;5081370;28;19904;-84
2022/02/15 03:21:55;;;;;;;;;;;;;;;17.37;51.74;100767.31;5063777;28;19916;-84
2022/02/15 03:33:53;;;;;;;;;;;;;;;17.36;51.71;100771.66;5034728;28;19931;-84
2022/02/15 03:46:00;;;;;;;;;;;;;;;17.35;51.76;100795.91;4978764;28;19913;-84
2022/02/15 04:00:02;;;;;;;;;;;;;;;17.34;51.72;100815.03;5101966;28;19948;-85
2022/02/15 04:18:22;;;;;;;;;;;;;;;17.33;51.55;100844.50;5052059;28;19972;-87
2022/02/15 04:21:25;;;;;;;;;;;;;;;17.32;51.46;100839.31;5041176;28;19969;-88
2022/02/15 04:24:10;;;;;;;;;;;;;;;17.32;51.68;100839.31;5476759;22;19932;-89
2022/02/15 04:26:35;;;;;;;;;;;;;;;17.32;51.53;100850.59;5084687;28;19956;-87
2022/02/15 04:35:16;;;;;;;;;;;;;;;17.31;51.63;100850.59;5101975;28;19931;-88
2022/02/15 04:41:07;;;;;;;;;;;;;;;17.31;51.54;100866.19;5102119;28;19923;-88
2022/02/15 04:46:45;;;;;;;;;;;;;;;17.31;51.54;100871.38;5041087;28;19940;-88
2022/02/15 04:58:33;;;;;;;;;;;;;;;17.30;51.56;100890.50;5040833;28;19912;-87
2022/02/15 05:07:25;;;;;;;;;;;;;;;17.30;51.54;100911.28;5040390;28;19932;-86
2022/02/15 05:10:15;;;;;;;;;;;;;;;17.30;51.37;100908.69;5024099;28;19936;-86
2022/02/15 05:15:51;;;;;;;;;;;;;;;17.28;51.45;100911.28;5040409;28;19928;-87
2022/02/15 05:21:43;;;;;;;;;;;;;;;17.27;51.59;100918.25;5040402;28;20005;-88
2022/02/15 05:27:25;;;;;;;;;;;;;;;17.27;51.34;100920.00;4994352;28;19915;-88
2022/02/15 05:39:16;;;;;;;;;;;;;;;17.27;51.32;100925.19;5019839;28;19929;-81
2022/02/15 05:48:15;;;;;;;;;;;;;;;17.27;51.01;100927.78;5000608;28;19937;-86
2022/02/15 05:57:07;;;;;;;;;;;;;;;17.26;51.51;100931.25;4923626;29;19931;-87
2022/02/15 06:02:53;;;;;;;;;;;;;;;17.26;51.10;100933.84;4940718;29;19926;-85
2022/02/15 06:09:00;;;;;;;;;;;;;;;17.25;51.52;100930.41;4942367;29;19950;-86
2022/02/15 06:11:29;;;;;;;;;;;;;;;17.25;51.75;100933.00;4943896;28;19907;-84
2022/02/15 06:14:15;;;;;;;;;;;;;;;17.25;51.98;100935.59;4996803;28;20327;-80
2022/02/15 06:16:41;;;;;;;;;;;;;;;17.26;51.92;100936.44;4986763;28;20015;-82
2022/02/15 06:19:06;;;;;;;;;;;;;;;17.25;52.02;100935.59;4955765;28;19918;-82
2022/02/15 06:21:34;;;;;;;;;;;;;;;17.27;51.89;100940.78;4993690;28;19914;-85
2022/02/15 06:24:07;;;;;;;;;;;;;;;17.28;52.03;100945.09;5018593;28;19937;-86
2022/02/15 06:26:44;;;;;;;;;;;;;;;17.27;51.82;100944.25;5037916;28;20016;-87
2022/02/15 06:29:11;;;;;;;;;;;;;;;17.27;51.95;100951.19;5020750;28;19925;-83
2022/02/15 06:31:37;;;;;;;;;;;;;;;17.27;51.98;100946.84;5017416;28;19922;-84
2022/02/15 06:37:15;;;;;;;;;;;;;;;17.29;52.29;100952.06;5038057;28;19920;-84
2022/02/15 06:39:44;;;;;;;;;;;;;;;17.28;52.04;100951.16;5037601;28;20049;-84
2022/02/15 06:45:28;;;;;;;;;;;;;;;17.29;52.01;100954.66;5098329;28;19923;-84
2022/02/15 06:47:55;;;;;;;;;;;;;;;17.28;52.32;100951.16;5097355;28;19971;-84
2022/02/15 06:50:20;;;;;;;;;;;;;;;17.29;52.24;100957.25;5063114;28;19901;-85
2022/02/15 06:52:46;;;;;;;;;;;;;;;17.30;52.12;100952.91;5096997;28;19916;-83
2022/02/15 06:55:11;;;;;;;;;;;;;;;17.29;52.36;100957.25;5097485;28;19919;-84
2022/02/15 06:57:37;;;;;;;;;;;;;;;17.30;52.17;100963.31;5090660;28;19908;-84
2022/02/15 07:00:09;;;;;;;;;;;;;;;17.31;52.02;100962.44;5064488;28;19955;-84
2022/02/15 07:02:35;;;;;;;;;;;;;;;17.30;52.11;100968.50;5080800;28;19944;-84
2022/02/15 07:05:05;;;;;;;;;;;;;;;17.31;52.11;100981.53;5097699;28;19912;-84
2022/02/15 07:07:33;;;;;;;;;;;;;;;17.31;52.39;100975.44;5064400;28;19988;-84
2022/02/15 07:10:00;;;;;;;;;;;;;;;17.31;52.03;100973.72;5080857;28;19921;-84
2022/02/15 07:12:25;;;;;;;;;;;;;;;17.31;52.24;100978.91;5080989;28;19968;-84
2022/02/15 07:14:52;;;;;;;;;;;;;;;17.32;52.21;100993.63;5097224;28;19905;-85
2022/02/15 07:17:18;;;;;;;;;;;;;;;17.33;52.06;100994.50;5080367;28;19920;-85
2022/02/15 07:19:43;;;;;;;;;;;;;;;17.34;52.22;100996.25;5098038;28;19932;-83
2022/02/15 07:22:09;;;;;;;;;;;;;;;17.33;52.14;101003.16;5078835;28;19901;-84
2022/02/15 07:24:36;;;;;;;;;;;;;;;17.34;52.22;101012.72;5080608;28;20016;-84
2022/02/15 07:27:02;;;;;;;;;;;;;;;17.33;52.06;101016.16;5064625;28;19927;-84
2022/02/15 07:29:28;;;;;;;;;;;;;;;17.35;52.15;101018.75;5060338;28;19917;-84
2022/02/15 07:31:53;;;;;;;;;;;;;;;17.34;52.27;101015.31;5043666;28;19924;-84
2022/02/15 07:34:19;;;;;;;;;;;;;;;17.33;52.14;101013.56;5054900;28;19979;-78
2022/02/15 07:36:44;;;;;;;;;;;;;;;17.36;52.10;101021.38;5055356;28;19916;-80
2022/02/15 07:39:10;;;;;;;;;;;;;;;17.36;51.94;101016.16;5021809;28;20493;-78
2022/02/15 07:41:35;;;;;;;;;;;;;;;17.48;52.34;101023.03;5020904;28;19986;-78
2022/02/15 07:44:00;;;;;;;;;;;;;;;17.58;52.11;101026.44;5036824;28;20347;-78
2022/02/15 07:46:25;;;;;;;;;;;;;;;17.61;52.02;101027.25;5020382;28;20012;-78
2022/02/15 07:48:51;;;;;;;;;;;;;;;17.63;52.11;101030.72;5019662;28;19924;-78
2022/02/15 07:51:17;;;;;;;;;;;;;;;17.65;52.05;101028.13;5036466;28;19913;-78
2022/02/15 07:53:42;;;;;;;;;;;;;;;17.68;52.19;101028.09;5053969;28;19913;-78
2022/02/15 07:56:07;;;;;;;;;;;;;;;17.70;51.98;101028.94;5054081;28;19927;-79
2022/02/15 07:58:33;;;;;;;;;;;;;;;17.74;51.82;101028.06;5061799;28;19972;-89
2022/02/15 08:00:58;;;;;;;;;;;;;;;17.75;51.64;101028.94;5044737;28;19972;-90
2022/02/15 08:03:24;;;;;;;;;;;;;;;17.73;51.96;101034.16;5044977;28;19921;-90
2022/02/15 08:05:50;;;;;;;;;;;;;;;17.72;51.77;101034.16;5060533;28;19905;-89
2022/02/15 08:08:17;;;;;;;;;;;;;;;17.73;51.66;101028.09;5044842;28;19912;-89
2022/02/15 08:15:53;;;;;;;;;;;;;;;17.72;51.86;101034.16;5712154;22;19924;-78
2022/02/15 08:18:18;;;;;;;;;;;;;;;17.73;51.84;101033.28;5039322;28;19923;-78
2022/02/15 08:20:44;;;;;;;;;;;;;;;17.73;51.67;101031.53;5039157;28;20297;-79
2022/02/15 08:23:12;;;;;;;;;;;;;;;17.74;51.68;101035.84;5055846;28;19913;-78
2022/02/15 08:25:37;;;;;;;;;;;;;;;17.79;51.71;101033.22;5055624;28;20023;-78
2022/02/15 08:28:03;;;;;;;;;;;;;;;17.80;51.47;101043.63;5039137;28;20025;-78
2022/02/15 08:30:28;;;;;;;;;;;;;;;18.01;51.04;101032.22;5056991;28;19917;-78
2022/02/15 08:35:29;;;;;;;;;;;;;;;18.29;50.35;101040.66;5889166;22;19909;-88
2022/02/15 08:37:54;;;;;;;;;;;;;;;18.31;50.25;101038.03;5081168;28;19951;-87
2022/02/15 08:42:55;;;;;;;;;;;;;;;18.06;50.72;101040.00;5815150;22;19908;-89
2022/02/15 08:45:22;;;;;;;;;;;;;;;18.06;50.76;101038.25;5084602;28;19981;-86
2022/02/15 09:21:24;;;;;;;;;;;;;;;18.19;50.20;101040.75;5159238;22;19929;-83
2022/02/15 09:23:50;;;;;;;;;;;;;;;18.16;50.23;101039.06;5043867;28;20421;-83
2022/02/15 09:26:15;;;;;;;;;;;;;;;18.13;50.22;101044.28;5041521;28;19904;-86
2022/02/15 09:28:40;;;;;;;;;;;;;;;18.11;50.37;101047.78;5041515;28;19976;-88
2022/02/15 09:31:08;;;;;;;;;;;;;;;18.12;50.32;101037.34;5044075;28;19911;-84
2022/02/15 09:33:36;;;;;;;;;;;;;;;18.11;50.34;101055.59;5144482;22;19932;-83
2022/02/15 09:41:12;;;;;;;;;;;;;;;18.18;49.91;101042.50;5324664;22;19913;-88
2022/02/15 09:43:37;;;;;;;;;;;;;;;18.20;49.97;101045.94;5041669;28;19924;-87
2022/02/15 09:53:44;;;;;;;;;;;;;;;18.09;50.17;101034.75;5079188;28;19925;-87
2022/02/15 09:56:10;;;;;;;;;;;;;;;18.12;50.06;101039.94;5059710;28;19967;-88
2022/02/15 09:58:35;;;;;;;;;;;;;;;18.11;49.79;101037.34;5077952;28;19920;-85
2022/02/15 10:01:01;;;;;;;;;;;;;;;18.12;50.05;101036.47;5059429;28;19908;-85
2022/02/15 10:03:27;;;;;;;;;;;;;;;18.13;49.85;101033.84;5060747;28;19927;-86
2022/02/15 10:05:52;;;;;;;;;;;;;;;18.12;49.96;101019.13;5058689;28;19913;-87
2022/02/15 10:08:28;;;;;;;;;;;;;;;18.13;50.02;101022.59;5058815;28;19962;-87
2022/02/15 10:10:54;;;;;;;;;;;;;;;18.12;50.02;101011.31;5060402;28;19897;-86
2022/02/15 10:13:19;;;;;;;;;;;;;;;18.09;49.96;101004.38;5058209;28;20355;-78
2022/02/15 10:15:44;;;;;;;;;;;;;;;18.07;50.00;101010.47;5056298;28;19917;-78
2022/02/15 10:18:11;;;;;;;;;;;;;;;18.06;50.15;101006.16;5022477;28;19917;-78
2022/02/15 10:20:37;;;;;;;;;;;;;;;18.06;50.19;100993.13;5037546;28;19968;-78
2022/02/15 10:23:18;;;;;;;;;;;;;;;18.05;50.05;100999.19;5038005;28;19913;-78
2022/02/15 10:25:43;;;;;;;;;;;;;;;18.04;49.87;100992.28;5038044;28;19935;-78
2022/02/15 10:28:13;;;;;;;;;;;;;;;18.04;49.92;101002.69;5021870;28;20278;-78
2022/02/15 10:30:45;;;;;;;;;;;;;;;18.05;49.96;100996.59;5038108;28;19913;-78
2022/02/15 10:33:10;;;;;;;;;;;;;;;18.09;49.89;101006.09;5037815;28;19980;-78
2022/02/15 10:35:35;;;;;;;;;;;;;;;18.09;49.96;101003.50;5037721;28;19963;-78
2022/02/15 10:38:01;;;;;;;;;;;;;;;18.11;49.89;100998.28;5021755;28;19955;-78
2022/02/15 10:40:30;;;;;;;;;;;;;;;18.10;49.90;100994.81;5040806;28;19921;-78
2022/02/15 10:42:55;;;;;;;;;;;;;;;18.11;49.72;101001.75;5038588;28;20367;-78
2022/02/15 10:45:25;;;;;;;;;;;;;;;18.12;49.58;101000.00;5021554;28;19924;-78
2022/02/15 10:48:04;;;;;;;;;;;;;;;18.14;49.69;101013.88;5038369;28;19940;-78
2022/02/15 10:53:11;;;;;;;;;;;;;;;18.13;49.55;101007.81;6224539;22;19927;31
2022/02/15 10:55:37;;;;;;;;;;;;;;;18.12;49.57;101006.09;5025707;28;19931;-78
2022/02/15 10:58:02;;;;;;;;;;;;;;;18.11;49.52;101001.75;5001289;28;19921;-77
2022/02/15 11:00:31;;;;;;;;;;;;;;;18.09;49.45;100995.69;5002781;28;19928;-79
2022/02/15 11:03:21;;;;;;;;;;;;;;;18.08;49.46;101005.25;5022012;28;20056;-79
2022/02/15 11:05:46;;;;;;;;;;;;;;;18.06;49.60;101009.59;5021636;28;19975;-79
2022/02/15 11:08:12;;;;;;;;;;;;;;;18.06;49.45;101017.41;5016547;28;20425;-81
2022/02/15 11:10:45;;;;;;;;;;;;;;;18.05;49.65;100997.47;5033820;28;19917;-81
2022/02/15 11:13:11;;;;;;;;;;;;;;;18.03;49.61;101004.44;5016368;28;19920;-80
2022/02/15 11:15:41;;;;;;;;;;;;;;;18.05;49.45;101000.09;5034079;28;19917;-81
2022/02/15 11:18:07;;;;;;;;;;;;;;;18.06;49.41;100996.59;5016651;28;19917;-81
2022/02/15 11:20:54;;;;;;;;;;;;;;;18.09;49.37;100998.28;5034173;28;19913;-79
2022/02/15 11:23:21;;;;;;;;;;;;;;;18.13;49.03;100996.53;5016799;28;19913;-81
2022/02/15 11:25:48;;;;;;;;;;;;;;;18.12;49.17;100992.19;5032991;28;20261;-80
2022/02/15 11:28:17;;;;;;;;;;;;;;;18.10;49.44;100987.00;5016578;28;19964;-80
2022/02/15 11:30:43;;;;;;;;;;;;;;;18.11;49.27;100990.47;5016793;28;19917;-79
2022/02/15 11:33:08;;;;;;;;;;;;;;;18.11;49.18;100974.84;5032756;28;19959;-80
2022/02/15 11:35:34;;;;;;;;;;;;;;;18.12;49.12;100966.16;5016481;28;19949;-80
2022/02/15 11:38:06;;;;;;;;;;;;;;;18.13;49.33;100967.88;5016469;28;19975;-79
2022/02/15 11:40:34;;;;;;;;;;;;;;;18.14;49.24;100953.97;5016921;28;20389;-79
2022/02/15 11:43:03;;;;;;;;;;;;;;;18.12;49.11;100938.38;4999812;28;20294;-78
2022/02/15 11:45:29;;;;;;;;;;;;;;;18.11;48.96;100941.84;5032593;28;20447;-78
2022/02/15 11:48:03;;;;;;;;;;;;;;;18.14;49.18;100930.53;5016473;28;19940;-76
2022/02/15 11:50:39;;;;;;;;;;;;;;;18.14;49.02;100927.94;5004273;28;19956;-76
2022/02/15 11:53:04;;;;;;;;;;;;;;;18.14;49.07;100926.22;4996629;28;20256;-81
2022/02/15 11:55:33;;;;;;;;;;;;;;;18.15;49.06;100922.72;4981709;28;19933;-85
2022/02/15 11:57:59;;;;;;;;;;;;;;;18.15;48.99;100917.50;4976947;28;19924;-79
2022/02/15 12:00:30;;;;;;;;;;;;;;;18.14;49.01;100918.41;4960742;28;20020;-78
2022/02/15 12:02:56;;;;;;;;;;;;;;;18.14;49.01;100912.31;4977164;28;19914;-81
2022/02/15 12:05:25;;;;;;;;;;;;;;;18.11;49.18;100901.94;4977131;28;20265;-80
2022/02/15 12:07:52;;;;;;;;;;;;;;;18.11;49.27;100912.34;4993321;28;19920;-82
2022/02/15 12:10:17;;;;;;;;;;;;;;;18.10;49.03;100903.69;4993025;28;19917;-79
2022/02/15 12:12:44;;;;;;;;;;;;;;;18.12;49.25;100901.03;4993114;28;19914;-78
2022/02/15 12:15:10;;;;;;;;;;;;;;;18.11;49.18;100894.13;4960905;28;19926;-81
2022/02/15 12:17:42;;;;;;;;;;;;;;;18.12;49.12;100882.81;4979175;28;19998;-81
2022/02/15 12:20:08;;;;;;;;;;;;;;;18.11;48.98;100874.13;4996737;28;19956;-81
2022/02/15 12:22:36;;;;;;;;;;;;;;;18.11;49.17;100870.69;4998514;28;19914;-81
2022/02/15 12:25:02;;;;;;;;;;;;;;;18.08;49.27;100866.38;4980502;28;19914;-81
2022/02/15 12:27:27;;;;;;;;;;;;;;;18.08;49.19;100853.34;4997992;28;20001;-80
2022/02/15 12:29:54;;;;;;;;;;;;;;;18.09;49.20;100861.16;4964469;28;19917;-81
2022/02/15 12:32:20;;;;;;;;;;;;;;;18.11;49.07;100860.25;4980334;28;19987;-80
2022/02/15 12:34:45;;;;;;;;;;;;;;;18.11;49.35;100860.25;4980276;28;20292;-82
2022/02/15 12:37:16;;;;;;;;;;;;;;;18.09;49.23;100847.25;4964064;28;19917;-81
2022/02/15 12:39:41;;;;;;;;;;;;;;;18.04;49.32;100847.31;4996548;28;19914;-81
2022/02/15 12:42:10;;;;;;;;;;;;;;;18.05;49.34;100840.34;4980328;28;19944;-81
2022/02/15 12:44:36;;;;;;;;;;;;;;;18.05;49.34;100830.81;4964172;28;19917;-82
2022/02/15 12:47:02;;;;;;;;;;;;;;;18.03;49.11;100827.38;4964167;28;19925;-78
2022/02/15 12:49:27;;;;;;;;;;;;;;;18.04;49.23;100831.69;4980388;28;19918;-80
2022/02/15 12:51:52;;;;;;;;;;;;;;;18.02;49.31;100830.84;4997808;28;19918;-81
2022/02/15 12:54:19;;;;;;;;;;;;;;;18.00;49.36;100822.19;4981638;28;19999;-80
2022/02/15 12:56:45;;;;;;;;;;;;;;;18.00;49.44;100818.72;4980243;28;19914;-82
2022/02/15 12:59:10;;;;;;;;;;;;;;;18.01;49.65;100816.09;4979909;28;19953;-79
2022/02/15 13:01:37;;;;;;;;;;;;;;;18.01;49.19;100810.91;4963922;28;19972;-83
2022/02/15 13:04:04;;;;;;;;;;;;;;;18.01;49.52;100812.66;4997171;28;20280;-81
2022/02/15 13:06:29;;;;;;;;;;;;;;;17.98;49.51;100797.03;4997927;28;20367;-81
2022/02/15 13:08:56;;;;;;;;;;;;;;;17.97;49.44;100800.53;4963601;28;19925;-81
2022/02/15 13:11:29;;;;;;;;;;;;;;;17.95;49.51;100797.09;4997230;28;19937;-81
2022/02/15 13:13:56;;;;;;;;;;;;;;;17.95;49.72;100781.47;4979834;28;19920;-81
2022/02/15 13:16:21;;;;;;;;;;;;;;;17.94;49.81;100784.94;4979636;28;19917;-80
2022/02/15 13:18:47;;;;;;;;;;;;;;;17.94;49.56;100777.13;4979517;28;20395;-82
2022/02/15 13:21:13;;;;;;;;;;;;;;;17.91;49.50;100772.81;4963459;28;19925;-80
2022/02/15 13:23:38;;;;;;;;;;;;;;;17.92;49.81;100778.88;4996994;28;19913;-80
2022/02/15 13:26:13;;;;;;;;;;;;;;;17.89;49.79;100772.81;4995606;28;19914;-81
2022/02/15 13:28:43;;;;;;;;;;;;;;;17.89;49.76;100759.81;4979173;28;20276;-81
2022/02/15 13:31:08;;;;;;;;;;;;;;;17.90;49.60;100758.09;4963371;28;19918;-80
2022/02/15 13:33:41;;;;;;;;;;;;;;;17.89;49.77;100758.97;4963622;28;19918;-81
2022/02/15 13:36:07;;;;;;;;;;;;;;;17.90;49.65;100752.88;4979181;28;19917;-80
2022/02/15 13:38:32;;;;;;;;;;;;;;;17.89;49.68;100748.53;4996630;28;19921;-82
2022/02/15 13:40:58;;;;;;;;;;;;;;;17.88;49.61;100741.63;4979192;28;19973;-80
2022/02/15 13:43:25;;;;;;;;;;;;;;;17.87;49.63;100743.34;4996584;28;20000;-80
2022/02/15 13:45:50;;;;;;;;;;;;;;;17.87;49.79;100742.50;4996506;28;19914;-81
2022/02/15 13:48:15;;;;;;;;;;;;;;;17.85;49.80;100732.09;4962893;28;19926;-81
2022/02/15 13:50:40;;;;;;;;;;;;;;;17.84;49.91;100726.94;4996452;28;20367;-80
2022/02/15 13:53:05;;;;;;;;;;;;;;;17.83;50.00;100723.47;4979029;28;19922;-81
2022/02/15 13:55:31;;;;;;;;;;;;;;;17.83;49.62;100701.75;4993483;28;19929;-81
2022/02/15 13:57:56;;;;;;;;;;;;;;;17.83;49.81;100705.25;5015840;28;19963;-81
2022/02/15 14:00:24;;;;;;;;;;;;;;;17.83;49.93;100688.75;4998140;28;19917;-83
2022/02/15 14:02:51;;;;;;;;;;;;;;;17.82;49.89;100682.69;4982468;28;20406;-83
2022/02/15 14:05:17;;;;;;;;;;;;;;;17.81;49.79;100670.53;4998225;28;19924;-81
2022/02/15 14:07:42;;;;;;;;;;;;;;;17.82;50.04;100671.41;4998136;28;19952;-85
2022/02/15 14:10:08;;;;;;;;;;;;;;;17.80;49.79;100668.78;4981764;28;19981;-82
2022/02/15 14:12:40;;;;;;;;;;;;;;;17.81;49.96;100669.66;4997871;28;20296;-83
2022/02/15 14:15:10;;;;;;;;;;;;;;;17.79;49.82;100671.41;4997998;28;20391;-83
2022/02/15 14:17:38;;;;;;;;;;;;;;;17.79;49.92;100674.00;4998093;28;19920;-82
2022/02/15 14:20:07;;;;;;;;;;;;;;;17.78;49.99;100665.34;5015475;28;19999;-81
2022/02/15 14:22:33;;;;;;;;;;;;;;;17.77;50.08;100654.94;5015368;28;20000;-83
2022/02/15 14:24:58;;;;;;;;;;;;;;;17.75;50.07;100641.97;4981616;28;19952;-81
2022/02/15 14:27:24;;;;;;;;;;;;;;;17.76;50.03;100642.84;4997713;28;19914;-83
2022/02/15 14:29:49;;;;;;;;;;;;;;;17.76;49.90;100641.09;4997744;28;19918;-82
2022/02/15 14:32:14;;;;;;;;;;;;;;;17.75;49.93;100639.38;4981250;28;20000;-82
2022/02/15 14:34:39;;;;;;;;;;;;;;;17.74;49.84;100628.97;4997721;28;19922;-81
2022/02/15 14:37:05;;;;;;;;;;;;;;;17.74;50.17;100623.78;4997548;28;19913;-82
2022/02/15 14:39:30;;;;;;;;;;;;;;;17.72;49.86;100628.13;4996720;28;20379;-82
2022/02/15 14:41:55;;;;;;;;;;;;;;;17.73;50.06;100622.06;4981379;28;19953;-78
2022/02/15 14:44:20;;;;;;;;;;;;;;;17.73;49.98;100624.66;4997387;28;19918;-80
2022/02/15 14:46:46;;;;;;;;;;;;;;;17.73;49.96;100614.25;4997517;28;20367;-83
2022/02/15 14:49:11;;;;;;;;;;;;;;;17.72;50.12;100599.50;5014998;28;19913;-83
2022/02/15 14:51:37;;;;;;;;;;;;;;;17.72;50.10;100589.09;4997285;28;19921;-81
2022/02/15 14:54:12;;;;;;;;;;;;;;;17.71;50.13;100593.44;4997207;28;19925;-81
2022/02/15 14:56:37;;;;;;;;;;;;;;;17.70;50.10;100589.09;4997226;28;19992;-82
2022/02/15 14:59:02;;;;;;;;;;;;;;;17.69;50.15;100579.59;4997615;28;20378;-82
2022/02/15 15:01:27;;;;;;;;;;;;;;;17.68;50.24;100578.75;4981043;28;19925;-82
2022/02/15 15:03:53;;;;;;;;;;;;;;;17.67;50.16;100574.41;4997323;28;19913;-81
2022/02/15 15:06:18;;;;;;;;;;;;;;;17.67;50.12;100558.78;4997055;28;19917;-80
2022/02/15 15:08:43;;;;;;;;;;;;;;;17.67;50.12;100565.75;5014514;28;19999;-81
2022/02/15 15:11:10;;;;;;;;;;;;;;;17.67;49.91;100570.94;4980899;28;19925;-81
2022/02/15 15:13:36;;;;;;;;;;;;;;;17.66;50.08;100549.28;4980832;28;19918;-82
2022/02/15 15:16:01;;;;;;;;;;;;;;;17.66;50.03;100546.69;4996990;28;19921;-83
2022/02/15 15:18:26;;;;;;;;;;;;;;;17.66;50.08;100541.47;4996995;28;20107;-82
2022/02/15 15:20:52;;;;;;;;;;;;;;;17.66;50.25;100532.81;4996979;28;20392;-82
2022/02/15 15:23:17;;;;;;;;;;;;;;;17.64;50.05;100517.22;4980754;28;20375;-81
2022/02/15 15:25:43;;;;;;;;;;;;;;;17.65;50.14;100524.13;4980940;28;20375;-85
2022/02/15 15:28:08;;;;;;;;;;;;;;;17.64;50.10;100514.63;4981318;28;19917;-81
2022/02/15 15:30:33;;;;;;;;;;;;;;;17.64;50.11;100513.75;5014432;28;19976;-84
2022/02/15 15:32:59;;;;;;;;;;;;;;;17.63;50.19;100489.47;4996719;28;20315;-84
2022/02/15 15:35:24;;;;;;;;;;;;;;;17.63;50.26;100506.81;4996868;28;19920;-84
2022/02/15 15:37:50;;;;;;;;;;;;;;;17.63;50.26;100504.22;4996942;28;19960;-83
2022/02/15 15:40:16;;;;;;;;;;;;;;;17.62;50.20;100503.38;4996944;28;19941;-83
2022/02/15 15:42:43;;;;;;;;;;;;;;;17.62;50.17;100494.72;4996879;28;19921;-84
2022/02/15 15:45:09;;;;;;;;;;;;;;;17.61;50.21;100495.56;4996671;28;20363;-84
2022/02/15 15:47:35;;;;;;;;;;;;;;;17.61;50.39;100487.78;5014166;28;19917;-83
2022/02/15 15:50:01;;;;;;;;;;;;;;;17.60;50.27;100481.72;5014142;28;19988;-81
2022/02/15 15:52:26;;;;;;;;;;;;;;;17.59;50.25;100474.78;5000650;28;19921;-84
2022/02/15 15:54:52;;;;;;;;;;;;;;;17.61;50.13;100477.34;4984268;28;19930;-84
2022/02/15 15:57:17;;;;;;;;;;;;;;;17.63;50.19;100486.00;4984667;28;19917;-83
2022/02/15 15:59:42;;;;;;;;;;;;;;;17.64;50.20;100469.53;5000749;28;19913;-85
2022/02/15 16:02:08;;;;;;;;;;;;;;;17.62;50.43;100466.94;5000709;28;20000;-85
2022/02/15 16:04:33;;;;;;;;;;;;;;;17.63;50.48;100459.97;4984350;28;19917;-86
2022/02/15 16:07:00;;;;;;;;;;;;;;;17.62;50.36;100466.09;5001069;28;20303;-86
2022/02/15 16:09:26;;;;;;;;;;;;;;;17.61;50.57;100460.00;5018272;28;19914;-85
2022/02/15 16:11:51;;;;;;;;;;;;;;;17.60;50.46;100458.28;5000467;28;19914;-86
2022/02/15 16:14:16;;;;;;;;;;;;;;;17.60;50.61;100454.84;4984180;28;19922;-84
2022/02/15 16:16:43;;;;;;;;;;;;;;;17.59;50.38;100442.69;5000486;28;19943;-85
2022/02/15 16:19:09;;;;;;;;;;;;;;;17.59;50.48;100442.69;4984765;28;19918;-83
2022/02/15 16:21:34;;;;;;;;;;;;;;;17.57;50.60;100434.06;5018339;28;19921;-85
2022/02/15 16:24:01;;;;;;;;;;;;;;;17.58;50.19;100435.78;5001119;28;20395;-85
2022/02/15 16:26:27;;;;;;;;;;;;;;;17.59;50.64;100429.69;5021543;28;19996;-84
2022/02/15 16:28:52;;;;;;;;;;;;;;;17.60;50.44;100431.41;5018101;28;20449;-84
2022/02/15 16:31:37;;;;;;;;;;;;;;;17.61;50.56;100435.72;5000607;28;19918;-84
2022/02/15 16:34:04;;;;;;;;;;;;;;;17.63;50.48;100432.22;5003593;28;19964;-84
2022/02/15 16:36:30;;;;;;;;;;;;;;;17.62;50.33;100427.06;5000107;28;19917;-82
2022/02/15 16:38:56;;;;;;;;;;;;;;;17.63;50.40;100436.56;5000193;28;19940;-83
2022/02/15 16:41:21;;;;;;;;;;;;;;;17.65;50.33;100447.81;5001552;28;19922;-82
2022/02/15 16:43:46;;;;;;;;;;;;;;;17.64;50.27;100420.94;5020465;28;19932;-85
2022/02/15 16:46:11;;;;;;;;;;;;;;;17.66;50.46;100429.56;4986764;28;19968;-84
2022/02/15 16:48:38;;;;;;;;;;;;;;;17.66;50.52;100426.13;5004827;28;19917;-83
2022/02/15 16:51:03;;;;;;;;;;;;;;;17.66;50.39;100408.75;5003532;28;19926;-84
2022/02/15 16:53:28;;;;;;;;;;;;;;;17.67;50.44;100423.47;4999949;28;19917;-79
2022/02/15 16:55:56;;;;;;;;;;;;;;;17.68;50.46;100435.63;4995236;28;19926;-81
2022/02/15 16:58:23;;;;;;;;;;;;;;;17.68;50.24;100416.53;4982892;28;19922;-84
2022/02/15 17:00:48;;;;;;;;;;;;;;;17.69;50.22;100419.09;4981111;28;19928;-82
2022/02/15 17:03:14;;;;;;;;;;;;;;;17.69;50.44;100424.31;4982539;28;20008;-80
2022/02/15 17:05:40;;;;;;;;;;;;;;;17.71;50.49;100424.28;4999624;28;19943;-80
2022/02/15 17:08:06;;;;;;;;;;;;;;;17.72;50.45;100435.56;4982859;28;19967;-80
2022/02/15 17:10:31;;;;;;;;;;;;;;;17.72;50.25;100435.56;4998884;28;19918;-82
2022/02/15 17:12:57;;;;;;;;;;;;;;;17.72;50.26;100435.56;4983278;28;19921;-81
2022/02/15 17:15:23;;;;;;;;;;;;;;;17.71;50.33;100434.69;4982399;28;19944;-81
2022/02/15 17:17:49;;;;;;;;;;;;;;;17.73;50.18;100416.47;4992747;28;19917;-83
2022/02/15 17:20:14;;;;;;;;;;;;;;;17.73;50.33;100414.72;4982516;28;19922;-85